Time;durP1;ratioP1;P1;durP2;ratioP2;P2;SDS_P1;SDS_P2;PMS_P1;PMS_P2;Temp;Humidity;BMP_temperature;BMP_pressure;BME280_temperature;BME280_humidity;BME280_pressure;Samples;Min_cycle;Max_cycle;Signal;HPM_P1;HPM_P2
2023/06/21 00:02:19;;;;;;;7.97;7.18;;;;;;;25.02;55.09;100316.59;5094069;28;20532;-66
2023/06/21 00:04:44;;;;;;;8.75;6.95;;;;;;;25.00;55.24;100315.97;5091563;28;20554;-66
2023/06/21 00:07:10;;;;;;;7.57;6.55;;;;;;;24.97;55.26;100309.06;5096537;27;20040;-67
2023/06/21 00:09:35;;;;;;;8.02;6.88;;;;;;;24.95;55.44;100305.69;5102391;28;20027;-66
2023/06/21 00:12:01;;;;;;;12.68;7.32;;;;;;;24.93;55.56;100307.84;5093266;28;20047;-67
2023/06/21 00:14:27;;;;;;;8.80;7.68;;;;;;;24.92;55.70;100319.03;5094763;28;20517;-66
2023/06/21 00:16:52;;;;;;;7.43;6.72;;;;;;;24.90;55.76;100321.16;5092643;28;20081;-66
2023/06/21 00:19:18;;;;;;;10.52;7.78;;;;;;;24.78;55.85;100303.75;5106111;28;20031;-66
2023/06/21 00:21:44;;;;;;;10.45;7.28;;;;;;;24.85;56.00;100321.84;5097908;28;20050;-67
2023/06/21 00:24:09;;;;;;;8.50;7.70;;;;;;;24.72;56.28;100300.03;5093372;28;20044;-66
2023/06/21 00:26:35;;;;;;;11.27;7.00;;;;;;;24.79;56.31;100309.03;5105414;28;20450;-66
2023/06/21 00:29:00;;;;;;;8.63;7.82;;;;;;;24.76;56.57;100312.22;5103691;28;20028;-66
2023/06/21 00:31:26;;;;;;;11.70;7.07;;;;;;;24.73;56.66;100318.16;5091904;28;20028;-66
2023/06/21 00:33:51;;;;;;;11.18;7.45;;;;;;;24.72;56.85;100307.41;5095506;28;20032;-66
2023/06/21 00:36:17;;;;;;;7.85;7.05;;;;;;;24.61;56.76;100299.91;5089143;28;20020;-66
2023/06/21 00:38:42;;;;;;;12.35;8.10;;;;;;;24.64;57.05;100313.19;5106110;28;20026;-66
2023/06/21 00:41:08;;;;;;;8.60;7.47;;;;;;;24.64;57.03;100305.81;5103130;28;20028;-66
2023/06/21 00:43:33;;;;;;;9.95;7.53;;;;;;;24.61;57.32;100313.63;5089144;28;20032;-66
2023/06/21 00:45:59;;;;;;;7.97;7.20;;;;;;;24.58;57.38;100297.59;5100583;28;20116;-66
2023/06/21 00:48:28;;;;;;;9.13;7.38;;;;;;;24.56;57.89;100300.56;5102722;28;20023;-66
2023/06/21 00:50:55;;;;;;;9.30;7.57;;;;;;;24.53;57.94;100301.03;5101240;28;20028;-66
2023/06/21 00:53:22;;;;;;;12.45;8.20;;;;;;;24.48;58.10;100294.53;5093523;28;20027;-66
2023/06/21 00:55:48;;;;;;;9.20;7.38;;;;;;;24.38;58.19;100286.84;5093825;28;20083;-67
2023/06/21 00:58:14;;;;;;;12.98;8.45;;;;;;;24.45;58.29;100307.63;5105704;28;20707;-66
2023/06/21 01:00:41;;;;;;;10.35;7.68;;;;;;;24.39;58.56;100289.34;5099811;28;20083;-66
2023/06/21 01:03:07;;;;;;;9.77;8.63;;;;;;;24.40;58.87;100299.25;5098113;28;20514;-66
2023/06/21 01:05:34;;;;;;;9.45;8.55;;;;;;;24.24;58.96;100280.59;5091075;28;20064;-66
2023/06/21 01:08:11;;;;;;;10.88;8.35;;;;;;;24.34;59.08;100316.59;5097503;28;20106;-66
2023/06/21 01:11:02;;;;;;;13.07;8.57;;;;;;;24.31;59.23;100308.81;5093771;28;20241;-66
2023/06/21 01:13:46;;;;;;;10.07;8.77;;;;;;;24.28;59.30;100319.41;5105755;28;20467;-66
2023/06/21 01:16:17;;;;;;;10.50;7.95;;;;;;;24.25;59.50;100311.63;5098628;28;20066;-66
2023/06/21 01:18:46;;;;;;;10.13;8.65;;;;;;;24.21;59.90;100311.22;5087401;28;20709;-66
2023/06/21 01:21:18;;;;;;;11.10;8.63;;;;;;;24.18;59.89;100319.88;5098598;28;20063;-67
2023/06/21 01:24:06;;;;;;;10.23;8.35;;;;;;;24.15;60.11;100319.50;5103592;28;20039;-66
2023/06/21 01:26:52;;;;;;;13.50;8.27;;;;;;;24.11;60.17;100324.56;5092701;28;20024;-67
2023/06/21 01:29:21;;;;;;;9.73;8.73;;;;;;;23.99;60.42;100309.88;5090069;28;20609;-67
2023/06/21 01:31:50;;;;;;;10.73;8.77;;;;;;;24.06;60.44;100327.13;5101054;28;20031;-66
2023/06/21 01:34:17;;;;;;;10.02;8.57;;;;;;;24.03;60.52;100319.38;5092638;28;20027;-66
2023/06/21 01:36:42;;;;;;;11.80;8.43;;;;;;;24.01;60.70;100329.72;5098541;28;21969;-66
2023/06/21 01:39:09;;;;;;;10.48;8.57;;;;;;;23.98;60.92;100321.94;5102290;27;20027;-66
2023/06/21 01:41:36;;;;;;;12.32;9.18;;;;;;;23.85;61.08;100301.94;5095985;28;20102;-66
2023/06/21 01:44:04;;;;;;;9.18;8.25;;;;;;;23.89;61.18;100316.91;5090071;28;20028;-66
2023/06/21 01:46:29;;;;;;;9.15;8.25;;;;;;;23.92;61.33;100317.28;5091058;28;20056;-66
2023/06/21 01:48:58;;;;;;;10.95;8.23;;;;;;;23.90;61.55;100324.88;5089621;28;20074;-66
2023/06/21 01:51:24;;;;;;;11.80;8.55;;;;;;;23.87;61.77;100313.53;5104660;28;20028;-66
2023/06/21 01:53:50;;;;;;;9.63;8.65;;;;;;;23.86;61.71;100315.44;5095611;28;20059;-66
2023/06/21 01:56:17;;;;;;;12.43;8.52;;;;;;;23.82;61.69;100321.56;5096498;27;20012;-66
2023/06/21 01:58:45;;;;;;;9.10;8.20;;;;;;;23.74;62.11;100314.47;5104300;28;20054;-66
2023/06/21 02:01:11;;;;;;;10.65;8.35;;;;;;;23.79;62.11;100325.59;5101731;28;20032;-66
2023/06/21 02:03:40;;;;;;;9.95;8.82;;;;;;;23.66;62.07;100306.50;5101908;28;20055;-66
2023/06/21 02:06:08;;;;;;;14.45;8.95;;;;;;;23.75;62.35;100321.63;5103966;28;20144;-66
2023/06/21 02:08:35;;;;;;;10.55;8.93;;;;;;;23.68;62.61;100312.59;5099396;28;20552;-66
2023/06/21 02:11:01;;;;;;;14.27;10.00;;;;;;;23.70;62.80;100315.94;5089354;28;20039;-66
2023/06/21 02:13:27;;;;;;;12.73;9.45;;;;;;;23.68;63.10;100317.22;5096292;28;20039;-66
2023/06/21 02:15:56;;;;;;;13.20;9.85;;;;;;;23.64;63.22;100310.53;5106597;28;20472;-66
2023/06/21 02:18:25;;;;;;;10.32;8.98;;;;;;;23.63;63.46;100314.31;5098217;28;20042;-67
2023/06/21 02:20:52;;;;;;;11.75;9.77;;;;;;;23.63;63.68;100323.38;5096196;28;20032;-66
2023/06/21 02:23:17;;;;;;;12.02;10.27;;;;;;;23.55;63.87;100309.09;5098180;28;20061;-66
2023/06/21 02:25:43;;;;;;;12.95;10.02;;;;;;;23.61;63.89;100316.44;5090556;28;20031;-66
2023/06/21 02:28:08;;;;;;;12.32;9.45;;;;;;;23.58;64.24;100320.47;5089173;28;20031;-66
2023/06/21 02:30:34;;;;;;;11.73;10.02;;;;;;;;;;5094463;28;20024;-66
2023/06/21 02:32:59;;;;;;;10.63;9.52;;;;;;;23.46;64.61;100308.50;5103974;28;20039;-66
2023/06/21 02:35:25;;;;;;;13.63;9.32;;;;;;;23.48;64.95;100311.03;5090466;28;20192;-66
2023/06/21 02:37:50;;;;;;;11.23;9.23;;;;;;;23.48;65.24;100311.88;5088679;28;20032;-66
2023/06/21 02:40:16;;;;;;;14.18;9.85;;;;;;;23.50;65.24;100319.84;5086091;28;20036;-66
2023/06/21 02:42:41;;;;;;;13.25;9.68;;;;;;;23.40;65.62;100303.88;5088093;28;20031;-66
2023/06/21 02:45:09;;;;;;;12.55;10.20;;;;;;;23.37;65.81;100293.38;5089741;28;20036;-66
2023/06/21 02:47:35;;;;;;;11.18;9.98;;;;;;;23.46;66.18;100313.13;5088329;28;20019;-66
2023/06/21 02:50:02;;;;;;;13.10;9.48;;;;;;;23.36;66.12;100307.28;5086060;28;20040;-66
2023/06/21 02:52:27;;;;;;;14.88;10.18;;;;;;;23.38;66.40;100316.94;5089766;28;20552;-66
2023/06/21 02:54:53;;;;;;;10.25;9.20;;;;;;;23.38;66.51;100311.47;5092666;28;20020;-66
2023/06/21 02:57:19;;;;;;;12.02;9.77;;;;;;;23.39;66.77;100315.91;5090299;28;20099;-66
2023/06/21 02:59:44;;;;;;;11.68;9.27;;;;;;;23.36;66.86;100316.34;5087094;28;20055;-66
2023/06/21 03:02:10;;;;;;;11.80;9.68;;;;;;;23.28;66.84;100302.88;5087424;28;20064;-66
2023/06/21 03:04:36;;;;;;;16.42;9.55;;;;;;;23.36;67.24;100318.22;5092995;28;20034;-66
2023/06/21 03:07:01;;;;;;;14.80;9.70;;;;;;;23.35;67.12;100322.88;5091206;28;20077;-66
2023/06/21 03:09:28;;;;;;;11.07;9.93;;;;;;;23.32;67.50;100328.78;5088533;28;20024;-66
2023/06/21 03:11:53;;;;;;;12.23;10.35;;;;;;;23.33;67.74;100335.94;5090975;28;20066;-66
2023/06/21 03:14:19;;;;;;;10.75;9.30;;;;;;;23.24;67.87;100315.31;5090094;28;20440;-66
2023/06/21 03:16:45;;;;;;;13.63;9.73;;;;;;;23.32;68.01;100336.16;5089032;28;20024;-66
2023/06/21 03:19:11;;;;;;;11.98;10.23;;;;;;;23.30;68.26;100339.09;5090477;28;20468;-66
2023/06/21 03:21:36;;;;;;;13.20;10.00;;;;;;;23.30;68.45;100336.38;5091247;28;20027;-66
2023/06/21 03:24:02;;;;;;;14.65;10.18;;;;;;;23.31;68.63;100343.50;5087861;28;20046;-66
2023/06/21 03:26:28;;;;;;;14.32;10.77;;;;;;;23.22;68.45;100322.91;5087859;28;20031;-66
2023/06/21 03:28:54;;;;;;;12.85;9.95;;;;;;;23.29;68.67;100351.13;5089915;28;20032;-66
2023/06/21 03:31:20;;;;;;;12.25;9.80;;;;;;;23.30;68.69;100346.47;5089337;28;20124;-66
2023/06/21 03:33:46;;;;;;;15.35;10.93;;;;;;;23.32;69.16;100347.94;5104239;28;20147;-66
2023/06/21 03:36:11;;;;;;;15.05;10.70;;;;;;;23.31;69.22;100339.94;5088221;28;20038;-66
2023/06/21 03:38:37;;;;;;;13.25;10.45;;;;;;;23.34;68.95;100343.09;5089360;28;20519;-66
2023/06/21 03:41:02;;;;;;;11.82;10.55;;;;;;;23.34;69.02;100334.06;5099198;28;20038;-66
2023/06/21 03:43:28;;;;;;;13.75;10.98;;;;;;;23.36;69.06;100331.91;5101553;28;20086;-66
2023/06/21 03:45:53;;;;;;;14.60;11.98;;;;;;;23.38;69.49;100329.81;5094755;28;20024;-66
2023/06/21 03:48:19;;;;;;;13.00;11.20;;;;;;;23.40;69.68;100330.41;5104547;28;20027;-66
2023/06/21 03:50:44;;;;;;;13.30;10.60;;;;;;;23.33;70.00;100307.72;5101076;28;20111;-66
2023/06/21 03:53:09;;;;;;;12.32;11.02;;;;;;;23.45;69.97;100331.47;5104272;28;20027;-66
2023/06/21 03:55:37;;;;;;;12.50;11.07;;;;;;;23.51;69.63;100336.06;5098658;28;20032;-66
2023/06/21 03:58:02;;;;;;;11.90;10.80;;;;;;;23.51;69.71;100327.00;5095867;28;21586;-66
2023/06/21 04:00:28;;;;;;;19.67;11.20;;;;;;;23.59;69.34;100332.22;5096161;28;20019;-66
2023/06/21 04:02:54;;;;;;;12.15;10.85;;;;;;;23.53;69.49;100317.53;5106691;28;20036;-66
2023/06/21 04:05:19;;;;;;;13.90;10.95;;;;;;;23.70;69.12;100334.28;5101278;28;20051;-66
2023/06/21 04:07:46;;;;;;;13.15;11.73;;;;;;;23.77;69.05;100335.91;5097932;28;20059;-66
2023/06/21 04:10:13;;;;;;;14.93;11.23;;;;;;;23.86;68.59;100337.34;5094531;28;20080;-66
2023/06/21 04:12:39;;;;;;;13.90;11.40;;;;;;;23.92;68.21;100321.91;5096600;28;20040;-66
2023/06/21 04:15:05;;;;;;;12.20;10.93;;;;;;;24.00;68.12;100322.56;5093200;28;20066;-65
2023/06/21 04:17:31;;;;;;;12.70;11.30;;;;;;;24.12;67.86;100319.94;5090959;28;20046;-65
2023/06/21 04:19:57;;;;;;;13.63;10.90;;;;;;;24.24;67.29;100332.69;5100344;28;20044;-66
2023/06/21 04:22:24;;;;;;;16.67;11.27;;;;;;;24.32;66.74;100326.94;5091183;28;20056;-65
2023/06/21 04:24:50;;;;;;;12.85;11.55;;;;;;;24.41;66.89;100328.34;5097917;28;20055;-66
2023/06/21 04:27:15;;;;;;;12.60;11.32;;;;;;;24.44;66.54;100324.31;5093801;28;20035;-66
2023/06/21 04:29:41;;;;;;;14.38;10.43;;;;;;;24.48;66.53;100330.19;5093993;28;20020;-66
2023/06/21 04:32:08;;;;;;;17.10;10.43;;;;;;;24.52;66.30;100326.78;5093745;28;20031;-66
2023/06/21 04:34:34;;;;;;;12.25;10.98;;;;;;;24.54;66.06;100326.56;5095926;28;20024;-66
2023/06/21 04:37:05;;;;;;;13.85;10.13;;;;;;;24.55;65.64;100330.97;5098801;28;20027;-66
2023/06/21 04:39:32;;;;;;;12.90;10.27;;;;;;;24.55;65.62;100333.69;5094762;28;20069;-67
2023/06/21 04:42:00;;;;;;;11.75;10.40;;;;;;;24.54;65.68;100323.81;5092907;28;20582;-66
2023/06/21 04:44:27;;;;;;;11.63;10.43;;;;;;;24.59;65.93;100327.53;5092812;28;20492;-66
2023/06/21 04:46:57;;;;;;;11.73;9.80;;;;;;;24.65;66.07;100339.56;5094740;28;20039;-67
2023/06/21 04:49:25;;;;;;;13.38;10.55;;;;;;;24.68;66.00;100326.25;5090684;28;20104;-66
2023/06/21 04:51:58;;;;;;;11.50;10.43;;;;;;;24.70;66.00;100323.28;5094186;28;20034;-66
2023/06/21 04:54:24;;;;;;;17.92;10.27;;;;;;;24.82;65.78;100332.44;5092026;28;20055;-67
2023/06/21 04:56:51;;;;;;;12.82;10.10;;;;;;;24.73;66.02;100301.69;5092435;28;20023;-66
2023/06/21 04:59:17;;;;;;;20.58;10.93;;;;;;;24.94;65.93;100330.59;5096200;28;20423;-66
2023/06/21 05:01:43;;;;;;;11.75;10.55;;;;;;;25.02;66.06;100333.91;5099601;28;20024;-66
2023/06/21 05:04:08;;;;;;;11.88;10.63;;;;;;;25.12;65.85;100347.94;5098423;28;20510;-67
2023/06/21 05:06:34;;;;;;;15.77;11.75;;;;;;;25.21;65.65;100353.97;5104070;28;20055;-66
2023/06/21 05:08:59;;;;;;;11.38;10.15;;;;;;;25.27;65.68;100353.03;5094512;28;20084;-67
2023/06/21 05:11:24;;;;;;;14.75;12.13;;;;;;;25.32;65.56;100354.09;5100674;28;20081;-66
2023/06/21 05:13:50;;;;;;;15.60;11.05;;;;;;;25.33;65.56;100347.53;5091807;28;20020;-66
2023/06/21 05:16:15;;;;;;;13.48;11.57;;;;;;;25.44;65.47;100352.22;5095040;28;20016;-66
2023/06/21 05:18:42;;;;;;;15.82;11.82;;;;;;;25.50;65.57;100361.50;5089212;28;20059;-66
2023/06/21 05:21:07;;;;;;;15.52;10.70;;;;;;;25.51;65.65;100365.91;5097705;28;20027;-66
2023/06/21 05:23:33;;;;;;;14.55;11.27;;;;;;;25.63;65.52;100372.31;5098471;28;20958;-66
2023/06/21 05:25:58;;;;;;;19.25;11.20;;;;;;;25.72;65.00;100377.25;5088995;28;20035;-66
2023/06/21 05:28:24;;;;;;;12.00;10.30;;;;;;;25.79;64.94;100378.00;5097049;28;20015;-66
2023/06/21 05:30:49;;;;;;;14.27;10.57;;;;;;;25.86;64.65;100380.66;5092262;28;20023;-67
2023/06/21 05:33:15;;;;;;;14.88;11.63;;;;;;;25.91;64.52;100387.13;5097477;28;20031;-66
2023/06/21 05:35:40;;;;;;;12.55;11.25;;;;;;;25.95;64.22;100398.50;5104465;28;20028;-66
2023/06/21 05:38:06;;;;;;;15.15;12.18;;;;;;;25.96;64.19;100398.25;5098879;28;20110;-67
2023/06/21 05:40:31;;;;;;;16.58;10.45;;;;;;;25.98;64.10;100396.16;5098676;28;20043;-67
2023/06/21 05:43:01;;;;;;;13.27;10.90;;;;;;;26.02;64.48;100402.06;5103517;28;20118;-66
2023/06/21 05:45:27;;;;;;;10.95;9.73;;;;;;;26.09;64.53;100400.84;5090054;28;20035;-66
2023/06/21 05:47:53;;;;;;;12.50;10.75;;;;;;;26.18;64.13;100402.22;5086207;28;20039;-67
2023/06/21 05:50:18;;;;;;;14.90;10.35;;;;;;;26.23;63.98;100385.88;5087063;28;20028;-66
2023/06/21 05:52:44;;;;;;;12.65;11.02;;;;;;;26.36;63.71;100393.06;5092130;28;20033;-66
2023/06/21 05:55:09;;;;;;;10.95;9.82;;;;;;;26.48;63.48;100388.44;5093327;28;20432;-66
2023/06/21 05:57:35;;;;;;;12.57;10.68;;;;;;;26.60;63.33;100392.06;5087352;28;20016;-67
2023/06/21 06:00:00;;;;;;;12.45;10.02;;;;;;;26.73;63.04;100388.28;5094881;28;20055;-66
2023/06/21 06:02:26;;;;;;;12.38;10.93;;;;;;;26.81;62.32;100379.66;5095253;28;20111;-67
2023/06/21 06:04:53;;;;;;;14.00;10.70;;;;;;;26.95;61.73;100394.88;5090732;28;20084;-67
2023/06/21 06:07:19;;;;;;;11.95;10.70;;;;;;;27.09;61.94;100399.91;5096023;28;20111;-67
2023/06/21 06:09:45;;;;;;;11.93;10.55;;;;;;;27.22;61.81;100396.91;5100650;28;20034;-67
2023/06/21 06:12:10;;;;;;;12.70;10.82;;;;;;;27.36;60.73;100400.25;5102282;28;20430;-67
2023/06/21 06:14:37;;;;;;;11.95;10.75;;;;;;;27.49;60.59;100402.75;5096976;28;20030;-67
2023/06/21 06:17:02;;;;;;;11.15;8.88;;;;;;;27.66;60.12;100401.75;5100535;28;20459;-67
2023/06/21 06:19:28;;;;;;;10.52;9.25;;;;;;;27.82;59.63;100389.16;5097030;28;20046;-66
2023/06/21 06:21:53;;;;;;;10.73;9.65;;;;;;;27.95;59.18;100391.66;5097580;28;20082;-66
2023/06/21 06:24:18;;;;;;;10.80;9.70;;;;;;;28.08;58.34;100388.59;5101679;28;20052;-67
2023/06/21 06:26:44;;;;;;;11.27;10.18;;;;;;;28.21;57.83;100399.34;5090232;28;20015;-67
2023/06/21 06:29:09;;;;;;;12.90;9.10;;;;;;;28.30;57.04;100389.56;5096131;28;20028;-67
2023/06/21 06:31:35;;;;;;;12.20;9.30;;;;;;;28.46;57.01;100400.66;5091976;28;20463;-67
2023/06/21 06:34:00;;;;;;;10.60;9.55;;;;;;;28.60;56.75;100408.63;5105457;28;20089;-67
2023/06/21 06:36:26;;;;;;;10.35;9.18;;;;;;;28.71;56.42;100405.78;5088832;28;20028;-66
2023/06/21 06:38:52;;;;;;;11.35;9.68;;;;;;;28.85;56.31;100401.59;5102718;28;20030;-67
2023/06/21 06:41:18;;;;;;;13.25;10.02;;;;;;;29.00;56.59;100401.84;5097246;28;20115;-67
2023/06/21 06:43:44;;;;;;;11.40;9.90;;;;;;;29.11;55.68;100405.66;5094810;28;20106;-67
2023/06/21 06:46:10;;;;;;;11.68;10.02;;;;;;;29.21;55.61;100405.81;5091898;28;20107;-67
2023/06/21 06:48:35;;;;;;;11.52;9.82;;;;;;;29.33;55.37;100401.81;5089974;28;20111;-67
2023/06/21 06:51:01;;;;;;;11.95;9.88;;;;;;;29.44;55.61;100397.28;5092779;28;20388;-67
2023/06/21 06:53:26;;;;;;;13.20;10.20;;;;;;;29.60;55.41;100399.97;5085971;28;20020;-67
2023/06/21 06:55:53;;;;;;;13.23;9.65;;;;;;;29.71;54.82;100396.31;5103157;28;20479;-67
2023/06/21 06:58:19;;;;;;;14.55;11.35;;;;;;;29.74;54.09;100372.81;5103804;28;20051;-67
2023/06/21 07:00:48;;;;;;;12.30;11.00;;;;;;;29.92;53.73;100387.16;5090182;28;20095;-70
2023/06/21 07:03:14;;;;;;;17.20;10.55;;;;;;;29.92;53.71;100387.16;5101895;28;20065;-68
2023/06/21 07:05:51;;;;;;;12.23;9.43;;;;;;;29.98;53.34;100369.50;5096094;28;20035;-68
2023/06/21 07:08:20;;;;;;;11.88;9.75;;;;;;;30.17;53.11;100372.75;5098355;28;20047;-69
2023/06/21 07:10:45;;;;;;;12.48;10.40;;;;;;;30.32;53.06;100386.78;5097368;28;20031;-67
2023/06/21 07:13:11;;;;;;;11.18;10.13;;;;;;;30.40;52.62;100383.53;5093700;28;20031;-67
2023/06/21 07:15:36;;;;;;;11.48;10.30;;;;;;;30.46;52.27;100375.03;5099317;27;20031;-67
2023/06/21 07:18:02;;;;;;;13.98;10.27;;;;;;;30.65;52.27;100380.19;5091197;28;20024;-67
2023/06/21 07:20:27;;;;;;;10.48;9.48;;;;;;;30.72;51.69;100376.06;5109434;28;20031;-67
2023/06/21 07:22:53;;;;;;;13.27;9.75;;;;;;;30.76;51.40;100362.56;5110056;28;20122;-67
2023/06/21 07:25:18;;;;;;;11.25;10.25;;;;;;;30.94;50.95;100376.00;5091899;28;20380;-67
2023/06/21 07:27:44;;;;;;;10.35;9.40;;;;;;;30.99;50.95;100365.81;5099949;28;20031;-67
2023/06/21 07:30:10;;;;;;;10.63;9.57;;;;;;;31.13;50.15;100377.25;5094985;28;20027;-68
2023/06/21 07:32:35;;;;;;;10.32;9.32;;;;;;;31.21;49.72;100376.75;5101100;28;20027;-67
2023/06/21 07:35:02;;;;;;;11.55;10.38;;;;;;;31.24;49.09;100362.34;5102832;28;20092;-67
2023/06/21 07:37:27;;;;;;;13.02;10.13;;;;;;;31.37;49.12;100364.69;5098662;28;20390;-67
2023/06/21 07:39:55;;;;;;;11.57;8.73;;;;;;;31.40;48.98;100353.88;5107330;28;20080;-67
2023/06/21 07:42:21;;;;;;;12.15;9.68;;;;;;;31.51;48.56;100361.16;5104633;28;20034;-67
2023/06/21 07:44:46;;;;;;;16.00;10.48;;;;;;;31.65;47.93;100378.97;5090004;28;20024;-67
2023/06/21 07:47:12;;;;;;;11.23;9.55;;;;;;;31.75;47.76;100376.22;5094949;28;20020;-67
2023/06/21 07:49:37;;;;;;;12.07;9.52;;;;;;;31.76;47.12;100358.47;5092296;28;20040;-68
2023/06/21 07:52:03;;;;;;;13.18;10.02;;;;;;;31.83;46.96;100367.41;5100458;28;20032;-67
2023/06/21 07:54:28;;;;;;;13.57;9.80;;;;;;;31.93;46.26;100369.38;5093324;28;20050;-67
2023/06/21 07:56:54;;;;;;;14.30;9.88;;;;;;;32.05;46.14;100384.69;5093071;28;20034;-68
2023/06/21 07:59:19;;;;;;;12.75;10.02;;;;;;;32.08;45.43;100381.34;5090941;28;20058;-67
2023/06/21 08:01:44;;;;;;;9.57;8.52;;;;;;;32.15;45.25;100390.25;5088769;28;20078;-67
2023/06/21 08:04:10;;;;;;;10.93;8.18;;;;;;;32.21;44.88;100386.38;5099772;28;20020;-67
2023/06/21 08:06:35;;;;;;;9.40;8.48;;;;;;;32.24;44.55;100385.84;5094466;28;20051;-67
2023/06/21 08:09:01;;;;;;;9.50;8.60;;;;;;;32.29;44.28;100385.84;5108930;28;20066;-68
2023/06/21 08:11:26;;;;;;;9.25;8.23;;;;;;;32.34;43.83;100382.28;5103109;28;20027;-67
2023/06/21 08:13:52;;;;;;;9.98;7.95;;;;;;;32.39;43.09;100385.91;5109257;28;20030;-67
2023/06/21 08:16:17;;;;;;;9.38;8.40;;;;;;;32.43;43.54;100383.38;5103948;28;20019;-67
2023/06/21 08:18:43;;;;;;;11.38;8.52;;;;;;;32.49;43.67;100377.59;5098008;28;20026;-67
2023/06/21 08:21:08;;;;;;;9.68;8.57;;;;;;;32.55;43.36;100375.63;5109129;28;20084;-67
2023/06/21 08:23:34;;;;;;;9.63;8.05;;;;;;;32.51;43.60;100363.41;5109140;28;20048;-67
2023/06/21 08:25:59;;;;;;;8.75;7.95;;;;;;;32.77;43.37;100392.03;5109080;28;20035;-67
2023/06/21 08:28:25;;;;;;;8.95;8.05;;;;;;;32.82;42.23;100386.47;5100212;28;20024;-67
2023/06/21 08:30:50;;;;;;;8.98;8.05;;;;;;;32.90;42.28;100391.50;5092774;28;20039;-67
2023/06/21 08:33:16;;;;;;;8.88;8.07;;;;;;;32.85;42.55;100358.97;5100596;28;20161;-68
2023/06/21 08:35:41;;;;;;;10.65;8.52;;;;;;;33.00;42.82;100381.22;5092859;28;20075;-67
2023/06/21 08:38:07;;;;;;;13.77;8.95;;;;;;;33.03;42.73;100374.25;5093096;28;20055;-68
2023/06/21 08:40:33;;;;;;;10.00;9.00;;;;;;;33.09;42.91;100378.69;5088262;28;20024;-68
2023/06/21 08:43:00;;;;;;;9.93;8.95;;;;;;;33.14;42.57;100385.06;5097621;28;20020;-68
2023/06/21 08:45:26;;;;;;;9.98;9.05;;;;;;;33.17;42.87;100387.28;5101747;28;20058;-68
2023/06/21 08:47:52;;;;;;;9.93;9.02;;;;;;;33.19;42.85;100387.00;5104259;28;20035;-68
2023/06/21 08:50:19;;;;;;;9.57;8.68;;;;;;;33.20;42.51;100381.19;5105294;28;20859;-68
2023/06/21 08:52:46;;;;;;;9.32;8.52;;;;;;;33.18;42.25;100383.44;5104351;28;20118;-68
2023/06/21 08:55:17;;;;;;;9.40;8.57;;;;;;;33.19;42.54;100378.69;5096430;28;20066;-67
2023/06/21 08:57:49;;;;;;;9.88;8.70;;;;;;;33.22;42.39;100375.34;5087845;28;20099;-68
2023/06/21 09:00:19;;;;;;;13.93;9.47;;;;;;;33.19;42.32;100375.91;5108064;28;20519;-68
2023/06/21 09:03:09;;;;;;;10.60;8.60;;;;;;;33.24;42.31;100387.03;5099034;28;20099;-68
2023/06/21 09:05:56;;;;;;;11.45;8.68;;;;;;;33.27;42.03;100378.13;5106666;28;20023;-68
2023/06/21 09:08:21;;;;;;;10.48;8.80;;;;;;;33.34;42.60;100390.63;5106909;28;20061;-68
2023/06/21 09:10:48;;;;;;;14.30;9.20;;;;;;;33.42;42.27;100389.22;5102616;28;20043;-68
2023/06/21 09:13:15;;;;;;;10.35;8.45;;;;;;;33.48;41.62;100382.53;5091989;28;20119;-68
2023/06/21 09:15:41;;;;;;;10.88;8.13;;;;;;;33.45;41.54;100372.81;5100339;28;20028;-68
2023/06/21 09:18:06;;;;;;;9.02;8.23;;;;;;;33.62;41.74;100384.44;5091722;28;20024;-68
2023/06/21 09:20:32;;;;;;;9.90;8.63;;;;;;;33.66;41.49;100382.72;5092259;28;20016;-68
2023/06/21 09:22:59;;;;;;;9.40;8.50;;;;;;;33.68;41.36;100376.88;5094505;28;20079;-68
2023/06/21 09:25:26;;;;;;;11.93;9.32;;;;;;;33.72;41.02;100380.78;5108197;27;20027;-68
2023/06/21 09:27:53;;;;;;;9.45;8.65;;;;;;;33.74;41.32;100375.75;5098439;28;20070;-68
2023/06/21 09:30:19;;;;;;;9.85;8.50;;;;;;;33.77;40.89;100377.97;5103370;28;20450;-68
2023/06/21 09:32:45;;;;;;;11.68;9.23;;;;;;;33.72;40.28;100373.25;5102905;28;20077;-68
2023/06/21 09:35:11;;;;;;;9.40;8.55;;;;;;;33.67;40.61;100369.66;5096563;28;20471;-68
2023/06/21 09:37:38;;;;;;;11.25;9.10;;;;;;;33.78;40.81;100376.84;5107784;28;20598;-67
2023/06/21 09:40:05;;;;;;;9.43;8.63;;;;;;;33.80;40.60;100383.81;5095546;28;20047;-68
2023/06/21 09:42:31;;;;;;;11.32;10.00;;;;;;;33.78;40.88;100371.28;5100181;28;20028;-68
2023/06/21 09:44:57;;;;;;;10.25;8.80;;;;;;;33.75;40.75;100371.88;5087581;28;20092;-68
2023/06/21 09:47:28;;;;;;;9.45;8.45;;;;;;;33.84;41.03;100382.13;5095348;28;20028;-68
2023/06/21 09:49:53;;;;;;;10.05;8.23;;;;;;;33.73;41.07;100358.25;5087128;28;20103;-68
2023/06/21 09:52:22;;;;;;;9.40;8.23;;;;;;;33.80;41.39;100382.97;5098010;28;20032;-68
2023/06/21 09:54:47;;;;;;;9.73;8.73;;;;;;;33.77;41.23;100386.31;5086799;28;20035;-68
2023/06/21 09:57:12;;;;;;;12.35;9.70;;;;;;;33.61;41.29;100354.94;5098081;28;20379;-67
2023/06/21 09:59:39;;;;;;;10.98;9.60;;;;;;;33.78;41.37;100385.19;5087026;28;20047;-69
2023/06/21 10:02:06;;;;;;;12.02;9.27;;;;;;;33.70;41.11;100389.41;5092367;28;20024;-67
2023/06/21 10:04:41;;;;;;;11.38;9.38;;;;;;;33.68;41.13;100385.22;5086731;28;20032;-68
2023/06/21 10:07:07;;;;;;;11.15;10.05;;;;;;;33.61;41.04;100376.34;5105525;28;20031;-68
2023/06/21 10:09:37;;;;;;;9.95;9.15;;;;;;;33.57;40.93;100381.69;5102951;28;20510;-68
2023/06/21 10:12:09;;;;;;;9.57;8.70;;;;;;;33.59;40.96;100395.31;5090896;28;20092;-68
2023/06/21 10:14:35;;;;;;;10.90;8.52;;;;;;;33.57;41.29;100394.75;5105300;28;20031;-67
2023/06/21 10:17:02;;;;;;;9.65;8.85;;;;;;;33.56;41.05;100399.47;5102593;28;20076;-68
2023/06/21 10:19:31;;;;;;;12.10;8.95;;;;;;;33.47;41.11;100392.00;5092350;28;20035;-68
2023/06/21 10:22:10;;;;;;;10.05;9.15;;;;;;;33.50;41.35;100391.44;5103997;28;20051;-68
2023/06/21 10:24:47;;;;;;;9.65;8.75;;;;;;;33.58;41.54;100396.41;5095547;28;20106;-68
2023/06/21 10:27:14;;;;;;;10.30;9.23;;;;;;;33.61;41.02;100385.56;5106744;28;20042;-68
2023/06/21 10:29:44;;;;;;;10.32;9.38;;;;;;;33.56;41.36;100370.84;5106529;28;20570;-67
2023/06/21 10:32:10;;;;;;;10.20;9.20;;;;;;;33.71;40.97;100390.22;5101493;28;20081;-68
2023/06/21 10:34:52;;;;;;;9.95;8.77;;;;;;;33.67;40.58;100384.41;5101199;28;20030;-68
2023/06/21 10:37:32;;;;;;;10.10;9.10;;;;;;;33.62;40.76;100380.84;5097401;28;20031;-68
2023/06/21 10:40:04;;;;;;;10.38;9.38;;;;;;;33.60;40.69;100391.41;5086925;28;20523;-69
2023/06/21 10:42:32;;;;;;;10.73;9.20;;;;;;;33.54;40.71;100373.06;5091807;28;20603;-68
2023/06/21 10:44:59;;;;;;;11.35;9.98;;;;;;;33.60;41.13;100386.69;5088102;28;20043;-68
2023/06/21 10:47:25;;;;;;;10.70;9.70;;;;;;;33.60;41.47;100380.28;5106230;28;20020;-68
2023/06/21 10:49:53;;;;;;;10.65;9.63;;;;;;;33.62;41.59;100375.25;5101001;28;20028;-68
2023/06/21 10:52:21;;;;;;;10.50;9.52;;;;;;;33.67;40.82;100375.22;5106743;28;20667;-68
2023/06/21 10:54:47;;;;;;;10.25;9.27;;;;;;;33.61;41.10;100362.44;5090382;28;20062;-68
2023/06/21 10:57:15;;;;;;;10.98;9.20;;;;;;;33.75;41.10;100386.59;5105499;28;20027;-68
2023/06/21 10:59:42;;;;;;;11.15;9.43;;;;;;;33.75;40.99;100374.66;5106586;28;20478;-67
2023/06/21 11:02:08;;;;;;;9.90;8.90;;;;;;;33.75;41.16;100383.00;5095770;28;20028;-68
2023/06/21 11:05:11;;;;;;;10.52;9.52;;;;;;;33.71;41.29;100376.31;5100596;28;20498;-68
2023/06/21 11:07:36;;;;;;;11.30;10.20;;;;;;;33.67;40.96;100380.78;5088002;28;20033;-68
2023/06/21 11:10:05;;;;;;;13.35;9.88;;;;;;;33.54;41.12;100368.34;5095408;28;20099;-68
2023/06/21 11:12:34;;;;;;;10.23;9.23;;;;;;;33.53;41.23;100374.19;5097379;28;20038;-68
2023/06/21 11:14:59;;;;;;;11.15;9.93;;;;;;;33.50;41.29;100377.53;5087602;28;20051;-68
2023/06/21 11:17:25;;;;;;;11.70;9.52;;;;;;;33.46;41.45;100379.22;5087998;28;20024;-69